sensor_id;sensor_type;location;lat;lon;timestamp;P1;durP1;ratioP1;P2;durP2;ratioP2
32214;SDS011;18708;53.124;23.190;2023-04-01T00:00:32;46.30;;;27.77;;
32214;SDS011;18708;53.124;23.190;2023-04-01T00:02:58;47.42;;;27.30;;
32214;SDS011;18708;53.124;23.190;2023-04-01T00:05:24;46.05;;;26.85;;
32214;SDS011;18708;53.124;23.190;2023-04-01T00:07:50;49.40;;;25.98;;
32214;SDS011;18708;53.124;23.190;2023-04-01T00:10:18;44.72;;;25.90;;
32214;SDS011;18708;53.124;23.190;2023-04-01T00:12:44;44.95;;;26.15;;
32214;SDS011;18708;53.124;23.190;2023-04-01T00:15:12;45.83;;;26.02;;
32214;SDS011;18708;53.124;23.190;2023-04-01T00:17:38;39.67;;;25.17;;
32214;SDS011;18708;53.124;23.190;2023-04-01T00:20:04;45.22;;;25.95;;
32214;SDS011;18708;53.124;23.190;2023-04-01T00:22:30;44.10;;;25.73;;
32214;SDS011;18708;53.124;23.190;2023-04-01T00:24:56;44.95;;;26.42;;
32214;SDS011;18708;53.124;23.190;2023-04-01T00:27:22;43.80;;;26.70;;
32214;SDS011;18708;53.124;23.190;2023-04-01T00:29:48;44.20;;;26.98;;
32214;SDS011;18708;53.124;23.190;2023-04-01T00:32:14;39.92;;;26.13;;
32214;SDS011;18708;53.124;23.190;2023-04-01T00:34:40;36.17;;;24.05;;
32214;SDS011;18708;53.124;23.190;2023-04-01T00:37:06;41.22;;;25.40;;
32214;SDS011;18708;53.124;23.190;2023-04-01T00:39:33;42.33;;;27.08;;
32214;SDS011;18708;53.124;23.190;2023-04-01T00:42:02;43.45;;;27.33;;
32214;SDS011;18708;53.124;23.190;2023-04-01T00:44:29;43.28;;;26.00;;
32214;SDS011;18708;53.124;23.190;2023-04-01T00:46:58;38.97;;;24.45;;
32214;SDS011;18708;53.124;23.190;2023-04-01T00:49:35;33.13;;;21.65;;
32214;SDS011;18708;53.124;23.190;2023-04-01T00:52:04;32.15;;;22.13;;
32214;SDS011;18708;53.124;23.190;2023-04-01T00:54:32;28.63;;;21.25;;
32214;SDS011;18708;53.124;23.190;2023-04-01T00:57:00;33.50;;;22.63;;
32214;SDS011;18708;53.124;23.190;2023-04-01T00:59:31;42.58;;;25.00;;
32214;SDS011;18708;53.124;23.190;2023-04-01T01:02:01;39.65;;;25.30;;
32214;SDS011;18708;53.124;23.190;2023-04-01T01:04:29;41.00;;;26.42;;
32214;SDS011;18708;53.124;23.190;2023-04-01T01:17:30;32.60;;;23.15;;
32214;SDS011;18708;53.124;23.190;2023-04-01T01:27:41;35.50;;;24.45;;
32214;SDS011;18708;53.124;23.190;2023-04-01T01:35:40;35.00;;;24.00;;
32214;SDS011;18708;53.124;23.190;2023-04-01T01:38:15;33.33;;;25.23;;
32214;SDS011;18708;53.124;23.190;2023-04-01T01:40:44;39.55;;;26.65;;
32214;SDS011;18708;53.124;23.190;2023-04-01T01:43:14;39.13;;;26.58;;
32214;SDS011;18708;53.124;23.190;2023-04-01T01:45:45;37.35;;;26.27;;
32214;SDS011;18708;53.124;23.190;2023-04-01T01:48:16;42.15;;;27.20;;
32214;SDS011;18708;53.124;23.190;2023-04-01T01:50:42;39.72;;;25.33;;
32214;SDS011;18708;53.124;23.190;2023-04-01T01:53:11;35.25;;;22.73;;
32214;SDS011;18708;53.124;23.190;2023-04-01T01:55:39;29.30;;;22.02;;
32214;SDS011;18708;53.124;23.190;2023-04-01T01:58:22;34.38;;;22.58;;
32214;SDS011;18708;53.124;23.190;2023-04-01T02:01:00;23.83;;;18.92;;
32214;SDS011;18708;53.124;23.190;2023-04-01T02:03:31;30.88;;;20.85;;
32214;SDS011;18708;53.124;23.190;2023-04-01T02:06:01;31.73;;;23.38;;
32214;SDS011;18708;53.124;23.190;2023-04-01T02:08:44;36.67;;;23.85;;
32214;SDS011;18708;53.124;23.190;2023-04-01T02:11:12;36.53;;;24.48;;
32214;SDS011;18708;53.124;23.190;2023-04-01T02:13:42;33.05;;;23.17;;
32214;SDS011;18708;53.124;23.190;2023-04-01T02:16:20;33.40;;;22.88;;
32214;SDS011;18708;53.124;23.190;2023-04-01T02:18:49;38.80;;;24.60;;
32214;SDS011;18708;53.124;23.190;2023-04-01T02:21:19;34.10;;;24.05;;
32214;SDS011;18708;53.124;23.190;2023-04-01T02:23:47;32.80;;;24.42;;
32214;SDS011;18708;53.124;23.190;2023-04-01T02:26:15;36.40;;;24.77;;
32214;SDS011;18708;53.124;23.190;2023-04-01T02:28:41;35.47;;;24.83;;
32214;SDS011;18708;53.124;23.190;2023-04-01T02:31:11;35.67;;;24.30;;
32214;SDS011;18708;53.124;23.190;2023-04-01T02:33:39;34.08;;;22.58;;
32214;SDS011;18708;53.124;23.190;2023-04-01T02:36:05;32.72;;;22.80;;
32214;SDS011;18708;53.124;23.190;2023-04-01T02:38:35;36.15;;;23.88;;
32214;SDS011;18708;53.124;23.190;2023-04-01T02:41:01;41.20;;;25.65;;
32214;SDS011;18708;53.124;23.190;2023-04-01T02:43:28;36.50;;;24.48;;
32214;SDS011;18708;53.124;23.190;2023-04-01T02:45:53;44.50;;;27.20;;
32214;SDS011;18708;53.124;23.190;2023-04-01T02:48:19;40.17;;;26.38;;
32214;SDS011;18708;53.124;23.190;2023-04-01T02:50:45;39.92;;;25.90;;
32214;SDS011;18708;53.124;23.190;2023-04-01T02:53:11;34.33;;;25.00;;
32214;SDS011;18708;53.124;23.190;2023-04-01T02:55:39;44.08;;;26.67;;
32214;SDS011;18708;53.124;23.190;2023-04-01T02:58:05;41.90;;;27.73;;
32214;SDS011;18708;53.124;23.190;2023-04-01T03:00:31;42.70;;;27.73;;
32214;SDS011;18708;53.124;23.190;2023-04-01T03:02:59;46.05;;;30.63;;
32214;SDS011;18708;53.124;23.190;2023-04-01T03:05:25;47.65;;;30.70;;
32214;SDS011;18708;53.124;23.190;2023-04-01T03:07:51;50.47;;;31.52;;
32214;SDS011;18708;53.124;23.190;2023-04-01T03:10:16;51.20;;;31.90;;
32214;SDS011;18708;53.124;23.190;2023-04-01T03:12:42;49.33;;;32.17;;
32214;SDS011;18708;53.124;23.190;2023-04-01T03:15:09;53.40;;;32.30;;
32214;SDS011;18708;53.124;23.190;2023-04-01T03:17:36;51.42;;;32.45;;
32214;SDS011;18708;53.124;23.190;2023-04-01T03:20:03;51.85;;;33.22;;
32214;SDS011;18708;53.124;23.190;2023-04-01T03:22:30;50.80;;;33.30;;
32214;SDS011;18708;53.124;23.190;2023-04-01T03:24:58;55.30;;;33.67;;
32214;SDS011;18708;53.124;23.190;2023-04-01T03:27:23;57.35;;;34.60;;
32214;SDS011;18708;53.124;23.190;2023-04-01T03:29:51;49.15;;;32.13;;
32214;SDS011;18708;53.124;23.190;2023-04-01T03:32:19;54.80;;;35.22;;
32214;SDS011;18708;53.124;23.190;2023-04-01T03:34:45;52.20;;;34.75;;
32214;SDS011;18708;53.124;23.190;2023-04-01T03:37:11;56.25;;;35.45;;
32214;SDS011;18708;53.124;23.190;2023-04-01T03:39:36;55.58;;;35.28;;
32214;SDS011;18708;53.124;23.190;2023-04-01T03:42:02;55.63;;;34.60;;
32214;SDS011;18708;53.124;23.190;2023-04-01T03:44:32;54.97;;;35.38;;
32214;SDS011;18708;53.124;23.190;2023-04-01T03:46:58;58.05;;;34.90;;
32214;SDS011;18708;53.124;23.190;2023-04-01T03:49:24;66.72;;;38.90;;
32214;SDS011;18708;53.124;23.190;2023-04-01T03:51:50;65.45;;;38.33;;
32214;SDS011;18708;53.124;23.190;2023-04-01T03:54:17;69.57;;;41.13;;
32214;SDS011;18708;53.124;23.190;2023-04-01T03:56:45;71.45;;;44.45;;
32214;SDS011;18708;53.124;23.190;2023-04-01T03:59:13;77.10;;;41.83;;
32214;SDS011;18708;53.124;23.190;2023-04-01T04:01:39;66.47;;;39.38;;
32214;SDS011;18708;53.124;23.190;2023-04-01T04:04:05;62.70;;;39.47;;
32214;SDS011;18708;53.124;23.190;2023-04-01T04:06:30;60.83;;;36.78;;
32214;SDS011;18708;53.124;23.190;2023-04-01T04:08:57;63.00;;;36.95;;
32214;SDS011;18708;53.124;23.190;2023-04-01T04:11:23;62.17;;;36.42;;
32214;SDS011;18708;53.124;23.190;2023-04-01T04:13:49;70.55;;;39.72;;
32214;SDS011;18708;53.124;23.190;2023-04-01T04:16:15;63.88;;;37.45;;
32214;SDS011;18708;53.124;23.190;2023-04-01T04:18:44;69.45;;;39.03;;
32214;SDS011;18708;53.124;23.190;2023-04-01T04:21:13;72.20;;;41.38;;
32214;SDS011;18708;53.124;23.190;2023-04-01T04:23:39;76.55;;;41.50;;
32214;SDS011;18708;53.124;23.190;2023-04-01T04:26:06;57.05;;;35.55;;
32214;SDS011;18708;53.124;23.190;2023-04-01T04:28:34;59.60;;;38.13;;
32214;SDS011;18708;53.124;23.190;2023-04-01T04:31:00;52.95;;;34.80;;
32214;SDS011;18708;53.124;23.190;2023-04-01T04:33:30;65.68;;;40.50;;
32214;SDS011;18708;53.124;23.190;2023-04-01T04:35:56;76.95;;;46.47;;
32214;SDS011;18708;53.124;23.190;2023-04-01T04:38:23;116.63;;;64.18;;
32214;SDS011;18708;53.124;23.190;2023-04-01T04:40:49;95.55;;;55.00;;
32214;SDS011;18708;53.124;23.190;2023-04-01T04:43:15;145.75;;;75.75;;
32214;SDS011;18708;53.124;23.190;2023-04-01T04:45:43;151.05;;;76.30;;
32214;SDS011;18708;53.124;23.190;2023-04-01T04:48:12;104.15;;;57.30;;
32214;SDS011;18708;53.124;23.190;2023-04-01T04:50:43;99.75;;;58.95;;
32214;SDS011;18708;53.124;23.190;2023-04-01T04:53:10;109.60;;;60.63;;
32214;SDS011;18708;53.124;23.190;2023-04-01T04:55:37;122.22;;;65.43;;
32214;SDS011;18708;53.124;23.190;2023-04-01T04:58:07;95.05;;;55.67;;
32214;SDS011;18708;53.124;23.190;2023-04-01T05:00:33;80.90;;;47.75;;
32214;SDS011;18708;53.124;23.190;2023-04-01T05:02:58;71.15;;;43.53;;
32214;SDS011;18708;53.124;23.190;2023-04-01T05:05:26;76.20;;;42.65;;
32214;SDS011;18708;53.124;23.190;2023-04-01T05:07:52;73.40;;;42.72;;
32214;SDS011;18708;53.124;23.190;2023-04-01T05:10:20;73.38;;;42.92;;
32214;SDS011;18708;53.124;23.190;2023-04-01T05:12:46;72.68;;;42.10;;
32214;SDS011;18708;53.124;23.190;2023-04-01T05:15:12;73.32;;;41.72;;
32214;SDS011;18708;53.124;23.190;2023-04-01T05:17:40;79.32;;;43.40;;
32214;SDS011;18708;53.124;23.190;2023-04-01T05:20:06;78.20;;;45.75;;
32214;SDS011;18708;53.124;23.190;2023-04-01T05:22:36;81.72;;;45.17;;
32214;SDS011;18708;53.124;23.190;2023-04-01T05:25:02;77.07;;;44.45;;
32214;SDS011;18708;53.124;23.190;2023-04-01T05:27:27;78.90;;;45.72;;
32214;SDS011;18708;53.124;23.190;2023-04-01T05:29:53;89.68;;;48.88;;
32214;SDS011;18708;53.124;23.190;2023-04-01T05:32:19;87.60;;;48.35;;
32214;SDS011;18708;53.124;23.190;2023-04-01T05:34:44;85.65;;;48.15;;
32214;SDS011;18708;53.124;23.190;2023-04-01T05:37:10;88.35;;;50.13;;
32214;SDS011;18708;53.124;23.190;2023-04-01T05:39:38;77.63;;;46.03;;
32214;SDS011;18708;53.124;23.190;2023-04-01T05:42:07;80.47;;;47.15;;
32214;SDS011;18708;53.124;23.190;2023-04-01T05:44:34;81.05;;;48.90;;
32214;SDS011;18708;53.124;23.190;2023-04-01T05:47:00;79.82;;;47.78;;
32214;SDS011;18708;53.124;23.190;2023-04-01T05:49:26;83.53;;;48.03;;
32214;SDS011;18708;53.124;23.190;2023-04-01T05:51:51;76.15;;;45.65;;
32214;SDS011;18708;53.124;23.190;2023-04-01T05:54:17;80.40;;;46.22;;
32214;SDS011;18708;53.124;23.190;2023-04-01T05:56:43;66.28;;;38.97;;
32214;SDS011;18708;53.124;23.190;2023-04-01T05:59:10;64.90;;;37.05;;
32214;SDS011;18708;53.124;23.190;2023-04-01T06:01:36;65.03;;;37.75;;
32214;SDS011;18708;53.124;23.190;2023-04-01T06:04:03;64.43;;;40.17;;
32214;SDS011;18708;53.124;23.190;2023-04-01T06:06:29;64.25;;;38.95;;
32214;SDS011;18708;53.124;23.190;2023-04-01T06:08:57;67.38;;;39.75;;
32214;SDS011;18708;53.124;23.190;2023-04-01T06:15:03;63.95;;;40.67;;
32214;SDS011;18708;53.124;23.190;2023-04-01T06:28:56;84.28;;;51.63;;
32214;SDS011;18708;53.124;23.190;2023-04-01T06:42:13;114.60;;;70.28;;
32214;SDS011;18708;53.124;23.190;2023-04-01T06:47:58;107.95;;;64.38;;
32214;SDS011;18708;53.124;23.190;2023-04-01T06:50:27;67.35;;;40.97;;
32214;SDS011;18708;53.124;23.190;2023-04-01T06:53:06;58.80;;;36.70;;
32214;SDS011;18708;53.124;23.190;2023-04-01T06:55:50;56.92;;;34.25;;
32214;SDS011;18708;53.124;23.190;2023-04-01T06:58:23;63.20;;;38.58;;
32214;SDS011;18708;53.124;23.190;2023-04-01T07:00:54;58.08;;;35.08;;
32214;SDS011;18708;53.124;23.190;2023-04-01T07:03:30;60.45;;;35.90;;
32214;SDS011;18708;53.124;23.190;2023-04-01T07:06:03;57.50;;;35.63;;
32214;SDS011;18708;53.124;23.190;2023-04-01T07:08:33;59.90;;;37.28;;
32214;SDS011;18708;53.124;23.190;2023-04-01T07:11:04;57.53;;;36.83;;
32214;SDS011;18708;53.124;23.190;2023-04-01T07:13:41;52.72;;;34.63;;
32214;SDS011;18708;53.124;23.190;2023-04-01T07:21:47;41.78;;;28.85;;
32214;SDS011;18708;53.124;23.190;2023-04-01T07:24:27;43.50;;;29.80;;
32214;SDS011;18708;53.124;23.190;2023-04-01T07:27:09;39.47;;;27.85;;
32214;SDS011;18708;53.124;23.190;2023-04-01T07:29:38;42.75;;;27.88;;
32214;SDS011;18708;53.124;23.190;2023-04-01T07:37:30;38.75;;;26.48;;
32214;SDS011;18708;53.124;23.190;2023-04-01T08:25:37;39.55;;;27.63;;
32214;SDS011;18708;53.124;23.190;2023-04-01T08:30:57;38.83;;;27.58;;
32214;SDS011;18708;53.124;23.190;2023-04-01T08:33:31;33.08;;;25.42;;
32214;SDS011;18708;53.124;23.190;2023-04-01T08:36:19;37.08;;;27.42;;
32214;SDS011;18708;53.124;23.190;2023-04-01T08:38:54;37.15;;;27.55;;
32214;SDS011;18708;53.124;23.190;2023-04-01T08:42:06;42.22;;;30.33;;
32214;SDS011;18708;53.124;23.190;2023-04-01T08:53:24;36.75;;;26.75;;
32214;SDS011;18708;53.124;23.190;2023-04-01T08:56:17;45.60;;;28.60;;
32214;SDS011;18708;53.124;23.190;2023-04-01T09:01:52;44.42;;;29.27;;
32214;SDS011;18708;53.124;23.190;2023-04-01T09:10:24;45.47;;;28.60;;
32214;SDS011;18708;53.124;23.190;2023-04-01T09:19:19;37.78;;;24.20;;
32214;SDS011;18708;53.124;23.190;2023-04-01T09:22:08;37.47;;;27.50;;
32214;SDS011;18708;53.124;23.190;2023-04-01T09:27:54;30.63;;;21.73;;
32214;SDS011;18708;53.124;23.190;2023-04-01T09:30:42;41.85;;;27.52;;
32214;SDS011;18708;53.124;23.190;2023-04-01T09:42:07;33.42;;;22.60;;
32214;SDS011;18708;53.124;23.190;2023-04-01T09:44:54;29.77;;;22.00;;
32214;SDS011;18708;53.124;23.190;2023-04-01T09:53:14;29.20;;;20.08;;
32214;SDS011;18708;53.124;23.190;2023-04-01T10:01:13;50.95;;;32.35;;
32214;SDS011;18708;53.124;23.190;2023-04-01T10:12:49;24.80;;;20.20;;
32214;SDS011;18708;53.124;23.190;2023-04-01T10:15:32;29.48;;;21.83;;
32214;SDS011;18708;53.124;23.190;2023-04-01T10:23:45;16.77;;;12.18;;
32214;SDS011;18708;53.124;23.190;2023-04-01T10:26:38;17.65;;;13.63;;
32214;SDS011;18708;53.124;23.190;2023-04-01T11:28:27;16.10;;;11.73;;
32214;SDS011;18708;53.124;23.190;2023-04-01T11:31:32;12.15;;;9.68;;
32214;SDS011;18708;53.124;23.190;2023-04-01T11:36:40;14.65;;;11.73;;
32214;SDS011;18708;53.124;23.190;2023-04-01T11:50:21;10.95;;;7.97;;
32214;SDS011;18708;53.124;23.190;2023-04-01T11:55:51;12.00;;;8.85;;
32214;SDS011;18708;53.124;23.190;2023-04-01T12:09:25;11.13;;;7.90;;
32214;SDS011;18708;53.124;23.190;2023-04-01T12:12:27;13.63;;;9.68;;
32214;SDS011;18708;53.124;23.190;2023-04-01T12:26:53;16.35;;;8.73;;
32214;SDS011;18708;53.124;23.190;2023-04-01T12:43:11;10.50;;;7.03;;
32214;SDS011;18708;53.124;23.190;2023-04-01T12:49:00;6.15;;;4.55;;
32214;SDS011;18708;53.124;23.190;2023-04-01T12:57:19;8.07;;;5.85;;
32214;SDS011;18708;53.124;23.190;2023-04-01T13:11:18;12.18;;;8.85;;
32214;SDS011;18708;53.124;23.190;2023-04-01T13:16:39;7.93;;;5.78;;
32214;SDS011;18708;53.124;23.190;2023-04-01T13:19:22;6.20;;;4.57;;
32214;SDS011;18708;53.124;23.190;2023-04-01T13:27:51;4.90;;;3.95;;
32214;SDS011;18708;53.124;23.190;2023-04-01T13:36:11;23.77;;;21.25;;
32214;SDS011;18708;53.124;23.190;2023-04-01T13:43:58;21.60;;;17.50;;
32214;SDS011;18708;53.124;23.190;2023-04-01T13:46:41;30.30;;;18.52;;
32214;SDS011;18708;53.124;23.190;2023-04-01T13:49:36;13.38;;;10.60;;
32214;SDS011;18708;53.124;23.190;2023-04-01T14:05:59;8.30;;;7.18;;
32214;SDS011;18708;53.124;23.190;2023-04-01T14:11:50;12.40;;;10.70;;
32214;SDS011;18708;53.124;23.190;2023-04-01T14:17:06;13.15;;;9.82;;
32214;SDS011;18708;53.124;23.190;2023-04-01T14:34:59;11.32;;;9.93;;
32214;SDS011;18708;53.124;23.190;2023-04-01T14:40:28;17.92;;;12.98;;
32214;SDS011;18708;53.124;23.190;2023-04-01T14:46:06;42.25;;;25.90;;
32214;SDS011;18708;53.124;23.190;2023-04-01T14:49:04;54.80;;;33.85;;
32214;SDS011;18708;53.124;23.190;2023-04-01T14:51:39;48.40;;;29.25;;
32214;SDS011;18708;53.124;23.190;2023-04-01T14:54:16;36.25;;;23.90;;
32214;SDS011;18708;53.124;23.190;2023-04-01T14:56:49;27.73;;;20.50;;
32214;SDS011;18708;53.124;23.190;2023-04-01T15:01:53;26.50;;;18.88;;
32214;SDS011;18708;53.124;23.190;2023-04-01T15:18:09;22.95;;;16.38;;
32214;SDS011;18708;53.124;23.190;2023-04-01T15:20:56;20.88;;;14.30;;
32214;SDS011;18708;53.124;23.190;2023-04-01T15:26:30;22.48;;;14.82;;
32214;SDS011;18708;53.124;23.190;2023-04-01T15:40:00;28.60;;;16.73;;
32214;SDS011;18708;53.124;23.190;2023-04-01T15:45:22;21.98;;;14.98;;
32214;SDS011;18708;53.124;23.190;2023-04-01T15:54:05;14.55;;;9.65;;
32214;SDS011;18708;53.124;23.190;2023-04-01T16:22:27;20.20;;;16.52;;
32214;SDS011;18708;53.124;23.190;2023-04-01T16:30:44;23.92;;;16.13;;
32214;SDS011;18708;53.124;23.190;2023-04-01T16:36:29;11.10;;;8.45;;
32214;SDS011;18708;53.124;23.190;2023-04-01T16:42:20;9.48;;;6.82;;
32214;SDS011;18708;53.124;23.190;2023-04-01T16:47:35;24.25;;;14.75;;
32214;SDS011;18708;53.124;23.190;2023-04-01T16:50:18;26.75;;;18.38;;
32214;SDS011;18708;53.124;23.190;2023-04-01T16:56:04;13.15;;;9.23;;
32214;SDS011;18708;53.124;23.190;2023-04-01T16:58:39;13.43;;;9.88;;
32214;SDS011;18708;53.124;23.190;2023-04-01T17:01:27;15.85;;;10.43;;
32214;SDS011;18708;53.124;23.190;2023-04-01T17:04:06;10.10;;;7.15;;
32214;SDS011;18708;53.124;23.190;2023-04-01T17:27:59;34.17;;;14.90;;
32214;SDS011;18708;53.124;23.190;2023-04-01T17:33:13;21.20;;;12.05;;
32214;SDS011;18708;53.124;23.190;2023-04-01T17:36:16;15.90;;;10.50;;
32214;SDS011;18708;53.124;23.190;2023-04-01T17:47:13;10.77;;;6.82;;
32214;SDS011;18708;53.124;23.190;2023-04-01T17:52:43;19.38;;;10.77;;
32214;SDS011;18708;53.124;23.190;2023-04-01T18:00:54;10.45;;;6.65;;
32214;SDS011;18708;53.124;23.190;2023-04-01T18:14:18;16.58;;;10.13;;
32214;SDS011;18708;53.124;23.190;2023-04-01T18:17:04;12.15;;;8.18;;
32214;SDS011;18708;53.124;23.190;2023-04-01T18:22:28;12.50;;;9.75;;
32214;SDS011;18708;53.124;23.190;2023-04-01T18:27:46;16.20;;;11.70;;
32214;SDS011;18708;53.124;23.190;2023-04-01T18:38:29;17.60;;;9.95;;
32214;SDS011;18708;53.124;23.190;2023-04-01T18:41:13;17.50;;;9.43;;
32214;SDS011;18708;53.124;23.190;2023-04-01T18:46:49;12.60;;;7.47;;
32214;SDS011;18708;53.124;23.190;2023-04-01T18:57:38;13.13;;;7.25;;
32214;SDS011;18708;53.124;23.190;2023-04-01T19:05:38;10.57;;;6.00;;
32214;SDS011;18708;53.124;23.190;2023-04-01T19:08:14;8.75;;;6.38;;
32214;SDS011;18708;53.124;23.190;2023-04-01T19:41:17;10.05;;;7.15;;
32214;SDS011;18708;53.124;23.190;2023-04-01T19:44:03;11.90;;;7.40;;
32214;SDS011;18708;53.124;23.190;2023-04-01T19:46:51;12.27;;;8.50;;
32214;SDS011;18708;53.124;23.190;2023-04-01T19:49:46;11.90;;;8.27;;
32214;SDS011;18708;53.124;23.190;2023-04-01T19:52:37;14.02;;;9.35;;
32214;SDS011;18708;53.124;23.190;2023-04-01T20:00:20;9.25;;;6.72;;
32214;SDS011;18708;53.124;23.190;2023-04-01T20:16:22;6.18;;;5.07;;
32214;SDS011;18708;53.124;23.190;2023-04-01T20:19:00;8.13;;;5.60;;
32214;SDS011;18708;53.124;23.190;2023-04-01T20:21:36;6.22;;;4.93;;
32214;SDS011;18708;53.124;23.190;2023-04-01T20:26:58;6.05;;;4.65;;
32214;SDS011;18708;53.124;23.190;2023-04-01T20:38:16;6.03;;;4.38;;
32214;SDS011;18708;53.124;23.190;2023-04-01T20:46:53;4.75;;;3.97;;
32214;SDS011;18708;53.124;23.190;2023-04-01T20:52:40;4.25;;;3.70;;
32214;SDS011;18708;53.124;23.190;2023-04-01T20:55:19;5.18;;;4.20;;
32214;SDS011;18708;53.124;23.190;2023-04-01T21:19:55;4.40;;;4.00;;
32214;SDS011;18708;53.124;23.190;2023-04-01T21:34:03;4.13;;;3.47;;
32214;SDS011;18708;53.124;23.190;2023-04-01T21:36:52;4.22;;;3.80;;
32214;SDS011;18708;53.124;23.190;2023-04-01T21:45:19;4.32;;;3.92;;
32214;SDS011;18708;53.124;23.190;2023-04-01T21:56:37;5.85;;;4.93;;
32214;SDS011;18708;53.124;23.190;2023-04-01T22:07:55;5.45;;;4.88;;
32214;SDS011;18708;53.124;23.190;2023-04-01T22:11:08;5.30;;;4.78;;
32214;SDS011;18708;53.124;23.190;2023-04-01T22:16:43;5.38;;;4.85;;
32214;SDS011;18708;53.124;23.190;2023-04-01T22:27:44;5.30;;;4.80;;
32214;SDS011;18708;53.124;23.190;2023-04-01T22:33:02;6.43;;;5.28;;
32214;SDS011;18708;53.124;23.190;2023-04-01T22:44:28;5.30;;;4.53;;
32214;SDS011;18708;53.124;23.190;2023-04-01T22:49:38;5.28;;;4.75;;
32214;SDS011;18708;53.124;23.190;2023-04-01T22:54:56;5.20;;;4.70;;
32214;SDS011;18708;53.124;23.190;2023-04-01T22:57:42;5.28;;;4.78;;
32214;SDS011;18708;53.124;23.190;2023-04-01T23:00:32;5.18;;;4.20;;
32214;SDS011;18708;53.124;23.190;2023-04-01T23:05:54;6.07;;;5.47;;
32214;SDS011;18708;53.124;23.190;2023-04-01T23:11:17;7.20;;;5.10;;
32214;SDS011;18708;53.124;23.190;2023-04-01T23:13:49;5.45;;;4.93;;
32214;SDS011;18708;53.124;23.190;2023-04-01T23:16:23;6.20;;;5.50;;
32214;SDS011;18708;53.124;23.190;2023-04-01T23:19:04;5.93;;;5.32;;
32214;SDS011;18708;53.124;23.190;2023-04-01T23:21:42;6.55;;;5.80;;
32214;SDS011;18708;53.124;23.190;2023-04-01T23:26:55;6.72;;;5.70;;
32214;SDS011;18708;53.124;23.190;2023-04-01T23:29:28;6.05;;;5.45;;
32214;SDS011;18708;53.124;23.190;2023-04-01T23:31:58;5.55;;;4.80;;
32214;SDS011;18708;53.124;23.190;2023-04-01T23:34:34;5.28;;;4.53;;
32214;SDS011;18708;53.124;23.190;2023-04-01T23:37:05;5.93;;;5.15;;
32214;SDS011;18708;53.124;23.190;2023-04-01T23:39:37;6.00;;;5.40;;
32214;SDS011;18708;53.124;23.190;2023-04-01T23:44:37;6.20;;;5.60;;
32214;SDS011;18708;53.124;23.190;2023-04-01T23:47:04;7.43;;;6.55;;
32214;SDS011;18708;53.124;23.190;2023-04-01T23:49:38;7.10;;;6.40;;
32214;SDS011;18708;53.124;23.190;2023-04-01T23:52:19;7.03;;;6.25;;
32214;SDS011;18708;53.124;23.190;2023-04-01T23:54:59;7.75;;;6.95;;
32214;SDS011;18708;53.124;23.190;2023-04-01T23:57:39;7.25;;;5.95;;
